createdAt,value
2018-03-25T00:00:47.394Z,4.08
2018-03-25T00:01:47.615Z,4.02
2018-03-25T00:02:47.584Z,4.13
2018-03-25T00:03:47.303Z,3.99
2018-03-25T00:04:47.524Z,4.12
2018-03-25T00:05:47.497Z,4.06
2018-03-25T00:06:47.472Z,4.01
2018-03-25T00:07:47.435Z,4.01
2018-03-25T00:08:47.441Z,3.88
2018-03-25T00:09:47.380Z,3.91
2018-03-25T00:10:47.350Z,3.88
2018-03-25T00:11:47.068Z,3.87
2018-03-25T00:12:47.048Z,3.94
2018-03-25T00:13:47.255Z,3.92
2018-03-25T00:14:47.277Z,3.91
2018-03-25T00:15:47.195Z,3.99
2018-03-25T00:16:47.166Z,3.92
2018-03-25T00:17:46.887Z,3.95
2018-03-25T00:18:47.107Z,3.95
2018-03-25T00:19:46.584Z,3.91
2018-03-25T00:20:46.804Z,3.91
2018-03-25T00:21:46.773Z,3.92
2018-03-25T00:22:46.990Z,3.83
2018-03-25T00:23:46.961Z,3.88
2018-03-25T00:24:46.689Z,3.81
2018-03-25T00:25:46.911Z,3.86
2018-03-25T00:26:46.624Z,3.8
2018-03-25T00:27:46.904Z,3.84
2018-03-25T00:28:46.563Z,3.77
2018-03-25T00:29:46.783Z,3.74
2018-03-25T00:30:46.754Z,3.77
2018-03-25T00:31:46.718Z,3.91
2018-03-25T00:32:46.692Z,3.87
2018-03-25T00:33:46.677Z,3.78
2018-03-25T00:34:46.630Z,3.78
2018-03-25T00:35:46.604Z,3.76
2018-03-25T00:36:46.578Z,3.73
2018-03-25T00:37:46.549Z,3.74
2018-03-25T00:38:46.512Z,3.66
2018-03-25T00:39:46.482Z,3.66
2018-03-25T00:40:46.470Z,3.68
2018-03-25T00:41:46.435Z,3.7
2018-03-25T00:42:46.401Z,3.74
2018-03-25T00:43:46.367Z,3.74
2018-03-25T00:44:46.085Z,3.76
2018-03-25T00:45:46.313Z,3.74
2018-03-25T00:46:46.037Z,3.77
2018-03-25T00:47:46.240Z,3.77
2018-03-25T00:48:46.217Z,3.76
2018-03-25T00:49:46.192Z,3.63
2018-03-25T00:50:46.160Z,3.68
2018-03-25T00:51:46.126Z,3.63
2018-03-25T00:52:46.094Z,3.6
2018-03-25T00:53:46.072Z,3.6
2018-03-25T00:54:45.788Z,3.56
2018-03-25T00:55:46.014Z,3.53
2018-03-25T00:56:45.976Z,3.62
2018-03-25T00:57:45.974Z,3.47
2018-03-25T00:58:45.969Z,3.45
2018-03-25T00:59:45.883Z,3.36
2018-03-25T01:00:45.856Z,3.44
2018-03-25T01:01:45.576Z,3.37
2018-03-25T01:02:45.807Z,3.45
2018-03-25T01:03:45.523Z,3.42
2018-03-25T01:04:45.737Z,3.31
2018-03-25T01:05:45.458Z,3.36
2018-03-25T01:06:45.689Z,3.36
2018-03-25T01:07:45.745Z,3.34
2018-03-25T01:08:45.629Z,3.28
2018-03-25T01:09:45.587Z,3.28
2018-03-25T01:10:45.307Z,3.28
2018-03-25T01:11:45.527Z,3.28
2018-03-25T01:12:45.497Z,3.28
2018-03-25T01:13:45.721Z,3.32
2018-03-25T01:14:45.184Z,3.34
2018-03-25T01:15:45.258Z,3.31
2018-03-25T01:16:45.380Z,3.21
2018-03-25T01:17:45.342Z,3.31
2018-03-25T01:18:45.068Z,3.32
2018-03-25T01:19:45.285Z,3.28
2018-03-25T01:20:45.252Z,3.44
2018-03-25T01:21:45.226Z,3.34
2018-03-25T01:22:44.944Z,3.34
2018-03-25T01:23:45.157Z,3.25
2018-03-25T01:24:45.135Z,3.31
2018-03-25T01:25:45.102Z,3.44
2018-03-25T01:26:45.073Z,3.31
2018-03-25T01:27:45.044Z,3.26
2018-03-25T01:28:44.763Z,3.41
2018-03-25T01:29:44.978Z,3.36
2018-03-25T01:30:44.704Z,3.42
2018-03-25T01:31:44.924Z,3.32
2018-03-25T01:32:44.904Z,3.34
2018-03-25T01:33:44.618Z,3.32
2018-03-25T01:34:44.591Z,3.41
2018-03-25T01:35:44.564Z,3.29
2018-03-25T01:36:44.776Z,3.34
2018-03-25T01:37:44.494Z,3.28
2018-03-25T01:38:44.474Z,3.26
2018-03-25T01:39:44.684Z,3.18
2018-03-25T01:40:44.405Z,3.18
2018-03-25T01:41:44.625Z,3.21
2018-03-25T01:42:44.340Z,3.1
2018-03-25T01:43:44.560Z,3.11
2018-03-25T01:44:44.286Z,3
2018-03-25T01:45:44.502Z,3.05
2018-03-25T01:46:44.472Z,2.98
2018-03-25T01:47:44.190Z,3.04
2018-03-25T01:48:44.411Z,2.92
2018-03-25T01:49:44.374Z,2.92
2018-03-25T01:50:44.349Z,2.87
2018-03-25T01:51:44.316Z,2.86
2018-03-25T01:52:44.333Z,2.85
2018-03-25T01:53:44.008Z,2.77
2018-03-25T01:54:43.980Z,2.71
2018-03-25T01:55:44.203Z,2.79
2018-03-25T01:56:44.174Z,2.75
2018-03-25T01:57:44.134Z,2.75
2018-03-25T01:58:44.115Z,2.74
2018-03-25T01:59:44.079Z,2.77
2018-03-25T02:00:44.055Z,2.8
2018-03-25T02:01:43.765Z,2.77
2018-03-25T02:02:43.733Z,2.82
2018-03-25T02:03:43.956Z,2.8
2018-03-25T02:04:43.921Z,2.74
2018-03-25T02:05:43.892Z,2.82
2018-03-25T02:06:43.861Z,2.74
2018-03-25T02:07:43.829Z,2.8
2018-03-25T02:08:43.797Z,2.74
2018-03-25T02:09:43.524Z,2.77
2018-03-25T02:10:43.738Z,2.79
2018-03-25T02:11:43.713Z,2.82
2018-03-25T02:12:43.700Z,2.74
2018-03-25T02:13:43.646Z,2.77
2018-03-25T02:14:43.678Z,2.77
2018-03-25T02:15:43.336Z,2.69
2018-03-25T02:16:43.569Z,2.69
2018-03-25T02:17:43.545Z,2.71
2018-03-25T02:18:43.499Z,2.67
2018-03-25T02:19:43.468Z,2.69
2018-03-25T02:20:43.435Z,2.62
2018-03-25T02:21:43.155Z,2.69
2018-03-25T02:22:43.373Z,2.53
2018-03-25T02:23:43.341Z,2.57
2018-03-25T02:24:43.312Z,2.6
2018-03-25T02:25:43.276Z,2.65
2018-03-25T02:26:43.247Z,2.64
2018-03-25T02:27:43.225Z,2.61
2018-03-25T02:28:42.941Z,2.64
2018-03-25T02:29:42.662Z,2.61
2018-03-25T02:30:42.884Z,2.69
2018-03-25T02:31:43.103Z,2.64
2018-03-25T02:32:43.075Z,2.6
2018-03-25T02:33:43.051Z,2.54
2018-03-25T02:34:42.758Z,2.61
2018-03-25T02:35:42.738Z,2.62
2018-03-25T02:36:42.697Z,2.6
2018-03-25T02:37:42.915Z,2.54
2018-03-25T02:38:42.884Z,2.56
2018-03-25T02:39:42.906Z,2.54
2018-03-25T02:40:42.821Z,2.56
2018-03-25T02:41:42.793Z,2.56
2018-03-25T02:42:42.850Z,2.61
2018-03-25T02:43:42.739Z,2.5
2018-03-25T02:44:42.467Z,2.56
2018-03-25T02:45:42.670Z,2.6
2018-03-25T02:46:42.639Z,2.61
2018-03-25T02:47:42.367Z,2.64
2018-03-25T02:48:42.335Z,2.65
2018-03-25T02:49:42.565Z,2.6
2018-03-25T02:50:42.268Z,2.56
2018-03-25T02:51:42.490Z,2.6
2018-03-25T02:52:42.207Z,2.57
2018-03-25T02:53:42.175Z,2.54
2018-03-25T02:54:42.429Z,2.56
2018-03-25T02:55:42.376Z,2.54
2018-03-25T02:56:42.335Z,2.53
2018-03-25T02:57:42.305Z,2.53
2018-03-25T02:58:42.284Z,2.61
2018-03-25T02:59:42.255Z,2.56
2018-03-25T03:00:42.212Z,2.54
2018-03-25T03:01:42.189Z,2.39
2018-03-25T03:02:41.898Z,2.44
2018-03-25T03:03:42.122Z,2.44
2018-03-25T03:04:42.082Z,2.43
2018-03-25T03:05:41.810Z,2.47
2018-03-25T03:06:41.782Z,2.49
2018-03-25T03:07:41.749Z,2.46
2018-03-25T03:08:41.963Z,2.47
2018-03-25T03:09:41.686Z,2.54
2018-03-25T03:10:41.653Z,2.47
2018-03-25T03:11:41.873Z,2.53
2018-03-25T03:12:41.344Z,2.53
2018-03-25T03:13:41.810Z,2.6
2018-03-25T03:14:41.529Z,2.53
2018-03-25T03:15:41.748Z,2.53
2018-03-25T03:16:41.719Z,2.53
2018-03-25T03:17:41.681Z,2.56
2018-03-25T03:18:41.653Z,2.56
2018-03-25T03:19:41.624Z,2.47
2018-03-25T03:20:41.599Z,2.46
2018-03-25T03:21:41.565Z,2.47
2018-03-25T03:22:41.280Z,2.43
2018-03-25T03:23:41.518Z,2.47
2018-03-25T03:24:41.505Z,2.36
2018-03-25T03:25:41.186Z,2.28
2018-03-25T03:26:41.420Z,2.36
2018-03-25T03:27:41.379Z,2.35
2018-03-25T03:28:41.171Z,2.33
2018-03-25T03:29:41.327Z,2.25
2018-03-25T03:30:41.071Z,2.32
2018-03-25T03:31:41.061Z,2.24
2018-03-25T03:32:41.266Z,2.18
2018-03-25T03:33:41.211Z,2.29
2018-03-25T03:34:41.195Z,2.13
2018-03-25T03:35:41.146Z,2.24
2018-03-25T03:36:41.138Z,2.17
2018-03-25T03:37:41.116Z,2.25
2018-03-25T03:38:41.087Z,2.22
2018-03-25T03:39:41.046Z,2.14
2018-03-25T03:40:40.737Z,2.18
2018-03-25T03:41:40.988Z,2.15
2018-03-25T03:42:40.970Z,2.13
2018-03-25T03:43:40.897Z,2.15
2018-03-25T03:44:40.854Z,2.14
2018-03-25T03:45:40.819Z,2.1
2018-03-25T03:46:40.627Z,2.14
2018-03-25T03:47:40.783Z,2.1
2018-03-25T03:48:40.728Z,2.14
2018-03-25T03:49:40.725Z,2.2
2018-03-25T03:50:40.429Z,2.11
2018-03-25T03:51:40.655Z,2.14
2018-03-25T03:52:40.622Z,2.14
2018-03-25T03:53:40.570Z,2.13
2018-03-25T03:54:40.351Z,2.1
2018-03-25T03:55:40.506Z,2.02
2018-03-25T03:56:40.480Z,2.1
2018-03-25T03:57:40.446Z,2.13
2018-03-25T03:58:40.414Z,2.13
2018-03-25T03:59:40.386Z,1.97
2018-03-25T04:00:40.354Z,2
2018-03-25T04:01:40.335Z,1.97
2018-03-25T04:02:40.293Z,2.06
2018-03-25T04:03:40.265Z,1.95
2018-03-25T04:04:39.980Z,2.02
2018-03-25T04:05:39.699Z,1.99
2018-03-25T04:06:40.174Z,1.99
2018-03-25T04:07:40.135Z,1.94
2018-03-25T04:08:40.106Z,1.89
2018-03-25T04:09:39.832Z,1.91
2018-03-25T04:10:40.047Z,1.94
2018-03-25T04:11:39.772Z,1.97
2018-03-25T04:12:40.375Z,1.97
2018-03-25T04:13:39.704Z,2.02
2018-03-25T04:14:39.669Z,2
2018-03-25T04:15:39.639Z,1.89
2018-03-25T04:16:39.605Z,1.88
2018-03-25T04:17:39.577Z,1.87
2018-03-25T04:18:39.805Z,1.88
2018-03-25T04:19:39.768Z,1.87
2018-03-25T04:20:39.744Z,1.77
2018-03-25T04:21:39.451Z,1.77
2018-03-25T04:22:39.419Z,1.77
2018-03-25T04:23:39.386Z,1.78
2018-03-25T04:24:39.608Z,1.8
2018-03-25T04:25:39.581Z,1.76
2018-03-25T04:26:39.543Z,1.59
2018-03-25T04:27:39.509Z,1.59
2018-03-25T04:28:39.230Z,1.62
2018-03-25T04:29:39.450Z,1.6
2018-03-25T04:30:39.413Z,1.63
2018-03-25T04:31:39.385Z,1.58
2018-03-25T04:32:39.353Z,1.67
2018-03-25T04:33:39.071Z,1.6
2018-03-25T04:34:39.290Z,1.6
2018-03-25T04:35:39.273Z,1.67
2018-03-25T04:36:39.231Z,1.63
2018-03-25T04:37:39.200Z,1.6
2018-03-25T04:38:39.168Z,1.55
2018-03-25T04:39:39.135Z,1.58
2018-03-25T04:40:39.104Z,1.56
2018-03-25T04:41:38.823Z,1.55
2018-03-25T04:42:38.788Z,1.6
2018-03-25T04:43:38.756Z,1.58
2018-03-25T04:44:39.015Z,1.56
2018-03-25T04:45:39.008Z,1.6
2018-03-25T04:46:38.668Z,1.67
2018-03-25T04:47:38.386Z,1.56
2018-03-25T04:48:38.361Z,1.56
2018-03-25T04:49:38.575Z,1.5
2018-03-25T04:50:38.540Z,1.53
2018-03-25T04:51:38.512Z,1.53
2018-03-25T04:52:38.480Z,1.56
2018-03-25T04:53:38.700Z,1.49
2018-03-25T04:54:38.668Z,1.55
2018-03-25T04:55:38.733Z,1.49
2018-03-25T04:56:38.601Z,1.5
2018-03-25T04:57:38.321Z,1.44
2018-03-25T04:58:38.289Z,1.45
2018-03-25T04:59:38.511Z,1.5
2018-03-25T05:00:38.472Z,1.49
2018-03-25T05:01:38.197Z,1.35
2018-03-25T05:02:38.414Z,1.42
2018-03-25T05:03:38.387Z,1.44
2018-03-25T05:04:38.352Z,1.45
2018-03-25T05:05:38.328Z,1.5
2018-03-25T05:06:37.789Z,1.55
2018-03-25T05:07:38.257Z,1.5
2018-03-25T05:08:38.218Z,1.44
2018-03-25T05:09:37.941Z,1.48
2018-03-25T05:10:38.161Z,1.5
2018-03-25T05:11:38.125Z,1.45
2018-03-25T05:12:38.098Z,1.49
2018-03-25T05:13:37.815Z,1.45
2018-03-25T05:14:38.035Z,1.49
2018-03-25T05:15:38.002Z,1.52
2018-03-25T05:16:37.968Z,1.48
2018-03-25T05:17:37.943Z,1.58
2018-03-25T05:18:37.912Z,1.53
2018-03-25T05:19:37.874Z,1.49
2018-03-25T05:20:37.846Z,1.5
2018-03-25T05:21:37.813Z,1.55
2018-03-25T05:22:37.532Z,1.49
2018-03-25T05:23:37.506Z,1.59
2018-03-25T05:24:37.471Z,1.49
2018-03-25T05:25:37.683Z,1.55
2018-03-25T05:26:37.652Z,1.52
2018-03-25T05:27:37.642Z,1.49
2018-03-25T05:28:37.594Z,1.53
2018-03-25T05:29:37.064Z,1.45
2018-03-25T05:30:37.538Z,1.56
2018-03-25T05:31:37.507Z,1.52
2018-03-25T05:32:37.471Z,1.52
2018-03-25T05:33:37.431Z,1.55
2018-03-25T05:34:37.396Z,1.52
2018-03-25T05:35:37.124Z,1.5
2018-03-25T05:36:37.363Z,1.48
2018-03-25T05:37:37.313Z,1.49
2018-03-25T05:38:37.032Z,1.52
2018-03-25T05:39:37.240Z,1.5
2018-03-25T05:40:37.207Z,1.49
2018-03-25T05:41:37.233Z,1.53
2018-03-25T05:42:37.146Z,1.52
2018-03-25T05:43:37.122Z,1.55
2018-03-25T05:44:36.837Z,1.58
2018-03-25T05:45:37.053Z,1.66
2018-03-25T05:46:37.021Z,1.58
2018-03-25T05:47:36.987Z,1.58
2018-03-25T05:48:36.963Z,1.6
2018-03-25T05:49:36.929Z,1.6
2018-03-25T05:50:36.898Z,1.6
2018-03-25T05:51:36.617Z,1.68
2018-03-25T05:52:36.839Z,1.59
2018-03-25T05:53:36.810Z,1.68
2018-03-25T05:54:36.524Z,1.7
2018-03-25T05:55:36.741Z,1.73
2018-03-25T05:56:36.460Z,1.67
2018-03-25T05:57:36.677Z,1.77
2018-03-25T05:58:36.654Z,1.63
2018-03-25T05:59:36.615Z,1.78
2018-03-25T06:00:36.587Z,1.81
2018-03-25T06:01:36.302Z,1.84
2018-03-25T06:02:36.522Z,1.78
2018-03-25T06:03:36.486Z,1.81
2018-03-25T06:04:36.455Z,1.87
2018-03-25T06:05:36.422Z,1.88
2018-03-25T06:06:36.396Z,2.04
2018-03-25T06:07:36.465Z,1.97
2018-03-25T06:08:36.335Z,1.97
2018-03-25T06:09:36.325Z,2.04
2018-03-25T06:10:36.303Z,2.1
2018-03-25T06:11:36.241Z,2.13
2018-03-25T06:12:36.208Z,2.13
2018-03-25T06:13:36.179Z,2.1
2018-03-25T06:14:35.898Z,2.11
2018-03-25T06:15:36.126Z,2.14
2018-03-25T06:16:36.086Z,2.11
2018-03-25T06:17:35.811Z,2.25
2018-03-25T06:18:35.773Z,2.24
2018-03-25T06:19:36.000Z,2.22
2018-03-25T06:20:35.965Z,2.17
2018-03-25T06:21:35.935Z,2.28
2018-03-25T06:22:35.406Z,2.24
2018-03-25T06:23:35.879Z,2.33
2018-03-25T06:24:35.841Z,2.33
2018-03-25T06:25:35.812Z,2.42
2018-03-25T06:26:35.781Z,2.47
2018-03-25T06:27:35.755Z,2.43
2018-03-25T06:28:35.716Z,2.47
2018-03-25T06:29:35.738Z,2.44
2018-03-25T06:30:35.664Z,2.56
2018-03-25T06:31:35.626Z,2.62
2018-03-25T06:32:35.601Z,2.57
2018-03-25T06:33:35.572Z,2.68
2018-03-25T06:34:35.292Z,2.71
2018-03-25T06:35:35.513Z,2.64
2018-03-25T06:36:35.233Z,2.69
2018-03-25T06:37:35.449Z,2.67
2018-03-25T06:38:35.458Z,2.71
2018-03-25T06:39:35.388Z,2.75
2018-03-25T06:40:35.355Z,2.72
2018-03-25T06:41:35.325Z,2.75
2018-03-25T06:42:35.087Z,2.8
2018-03-25T06:43:34.765Z,2.82
2018-03-25T06:44:35.235Z,2.86
2018-03-25T06:45:35.209Z,2.93
2018-03-25T06:46:35.172Z,2.9
2018-03-25T06:47:35.145Z,2.97
2018-03-25T06:48:35.144Z,2.9
2018-03-25T06:49:35.089Z,3.05
2018-03-25T06:50:35.054Z,2.98
2018-03-25T06:51:35.030Z,3
2018-03-25T06:52:34.992Z,3.13
2018-03-25T06:53:34.723Z,3.13
2018-03-25T06:54:34.934Z,3.21
2018-03-25T06:55:34.905Z,3.14
2018-03-25T06:56:34.624Z,3.19
2018-03-25T06:57:34.848Z,3.21
2018-03-25T06:58:34.568Z,3.29
2018-03-25T06:59:34.537Z,3.31
2018-03-25T07:00:34.519Z,3.42
2018-03-25T07:01:34.479Z,3.34
2018-03-25T07:02:34.697Z,3.4
2018-03-25T07:03:34.669Z,3.37
2018-03-25T07:04:34.640Z,3.5
2018-03-25T07:05:34.614Z,3.58
2018-03-25T07:06:34.579Z,3.58
2018-03-25T07:07:34.553Z,3.65
2018-03-25T07:08:34.276Z,3.59
2018-03-25T07:09:34.488Z,3.76
2018-03-25T07:10:34.459Z,3.73
2018-03-25T07:11:34.436Z,3.76
2018-03-25T07:12:34.411Z,3.8
2018-03-25T07:13:34.130Z,3.84
2018-03-25T07:14:34.423Z,3.77
2018-03-25T07:15:34.069Z,3.87
2018-03-25T07:16:34.320Z,3.91
2018-03-25T07:17:34.261Z,3.92
2018-03-25T07:18:34.232Z,3.84
2018-03-25T07:19:34.263Z,3.92
2018-03-25T07:20:34.166Z,3.88
2018-03-25T07:21:34.272Z,3.88
2018-03-25T07:22:34.235Z,4.04
2018-03-25T07:23:33.831Z,4.06
2018-03-25T07:24:34.053Z,4.1
2018-03-25T07:25:34.024Z,4.02
2018-03-25T07:26:33.996Z,4.13
2018-03-25T07:27:33.968Z,4.24
2018-03-25T07:28:33.936Z,4.26
2018-03-25T07:29:33.910Z,4.32
2018-03-25T07:30:33.876Z,4.34
2018-03-25T07:31:33.855Z,4.4
2018-03-25T07:32:33.878Z,4.44
2018-03-25T07:33:33.795Z,4.58
2018-03-25T07:34:33.771Z,4.53
2018-03-25T07:35:33.489Z,4.6
2018-03-25T07:36:33.708Z,4.68
2018-03-25T07:37:33.685Z,4.71
2018-03-25T07:38:33.659Z,4.82
2018-03-25T07:39:33.627Z,4.9
2018-03-25T07:40:33.595Z,4.86
2018-03-25T07:41:33.565Z,4.97
2018-03-25T07:42:33.564Z,4.92
2018-03-25T07:43:33.353Z,4.97
2018-03-25T07:44:33.485Z,5.02
2018-03-25T07:45:32.957Z,5.14
2018-03-25T07:46:33.176Z,5.15
2018-03-25T07:47:33.404Z,5.15
2018-03-25T07:48:33.373Z,5.28
2018-03-25T07:49:33.348Z,5.29
2018-03-25T07:50:33.067Z,5.47
2018-03-25T07:51:33.057Z,5.39
2018-03-25T07:52:33.257Z,5.43
2018-03-25T07:53:32.736Z,5.56
2018-03-25T07:54:32.960Z,5.53
2018-03-25T07:55:33.178Z,5.59
2018-03-25T07:56:33.311Z,5.53
2018-03-25T07:57:33.140Z,5.68
2018-03-25T07:58:33.089Z,5.71
2018-03-25T07:59:33.069Z,5.76
2018-03-25T08:00:33.041Z,5.82
2018-03-25T08:01:33.014Z,5.9
2018-03-25T08:02:32.992Z,5.94
2018-03-25T08:03:32.704Z,6.02
2018-03-25T08:04:32.925Z,6.01
2018-03-25T08:05:32.404Z,6.04
2018-03-25T08:06:32.871Z,6.16
2018-03-25T08:07:32.847Z,6.22
2018-03-25T08:08:32.823Z,6.11
2018-03-25T08:09:32.789Z,6.2
2018-03-25T08:10:32.766Z,6.27
2018-03-25T08:11:32.756Z,6.31
2018-03-25T08:12:32.764Z,6.35
2018-03-25T08:13:32.434Z,6.28
2018-03-25T08:14:32.657Z,6.41
2018-03-25T08:15:32.634Z,6.56
2018-03-25T08:16:32.606Z,6.49
2018-03-25T08:17:32.580Z,6.54
2018-03-25T08:18:32.300Z,6.51
2018-03-25T08:19:32.521Z,6.49
2018-03-25T08:20:32.252Z,6.7
2018-03-25T08:21:32.623Z,6.72
2018-03-25T08:22:32.456Z,6.74
2018-03-25T08:23:32.413Z,6.81
2018-03-25T08:24:32.486Z,6.77
2018-03-25T08:25:32.114Z,6.89
2018-03-25T08:26:32.335Z,6.92
2018-03-25T08:27:32.312Z,6.89
2018-03-25T08:28:32.281Z,6.95
2018-03-25T08:29:32.258Z,6.93
2018-03-25T08:30:32.228Z,7.07
2018-03-25T08:31:32.204Z,7.13
2018-03-25T08:32:32.172Z,7.05
2018-03-25T08:33:31.899Z,7.18
2018-03-25T08:34:32.131Z,7.18
2018-03-25T08:35:31.844Z,7.28
2018-03-25T08:36:32.085Z,7.39
2018-03-25T08:37:32.054Z,7.36
2018-03-25T08:38:31.820Z,7.45
2018-03-25T08:39:32.009Z,7.54
2018-03-25T08:40:31.972Z,7.51
2018-03-25T08:41:31.936Z,7.61
2018-03-25T08:42:31.665Z,7.63
2018-03-25T08:43:31.638Z,7.67
2018-03-25T08:44:31.614Z,7.73
2018-03-25T08:45:31.584Z,7.83
2018-03-25T08:46:31.581Z,7.97
2018-03-25T08:47:31.790Z,7.94
2018-03-25T08:48:31.751Z,8
2018-03-25T08:49:31.740Z,7.94
2018-03-25T08:50:31.712Z,7.97
2018-03-25T08:51:31.687Z,8.05
2018-03-25T08:52:31.408Z,8.09
2018-03-25T08:53:31.628Z,8.19
2018-03-25T08:54:31.365Z,8.16
2018-03-25T08:55:31.338Z,8.2
2018-03-25T08:56:31.558Z,8.3
2018-03-25T08:57:31.278Z,8.3
2018-03-25T08:58:31.497Z,8.34
2018-03-25T08:59:31.231Z,8.46
2018-03-25T09:00:31.200Z,8.52
2018-03-25T09:01:31.421Z,8.45
2018-03-25T09:02:31.405Z,8.55
2018-03-25T09:03:31.371Z,8.6
2018-03-25T09:04:31.353Z,8.66
2018-03-25T09:05:31.325Z,8.73
2018-03-25T09:06:31.048Z,8.6
2018-03-25T09:07:31.281Z,8.69
2018-03-25T09:08:31.252Z,8.7
2018-03-25T09:09:31.224Z,8.7
2018-03-25T09:10:30.949Z,8.79
2018-03-25T09:11:31.128Z,8.76
2018-03-25T09:12:31.480Z,8.74
2018-03-25T09:13:31.133Z,8.84
2018-03-25T09:14:30.858Z,8.87
2018-03-25T09:15:30.825Z,8.95
2018-03-25T09:16:30.799Z,9.02
2018-03-25T09:17:30.524Z,8.97
2018-03-25T09:18:30.753Z,8.99
2018-03-25T09:19:31.035Z,9
2018-03-25T09:20:30.947Z,9.13
2018-03-25T09:21:30.923Z,9.04
2018-03-25T09:22:30.900Z,9.18
2018-03-25T09:23:30.881Z,9.13
2018-03-25T09:24:30.604Z,9.16
2018-03-25T09:25:30.827Z,9.22
2018-03-25T09:26:30.802Z,9.22
2018-03-25T09:27:30.777Z,9.22
2018-03-25T09:28:30.527Z,9.23
2018-03-25T09:29:30.736Z,9.32
2018-03-25T09:30:30.458Z,9.36
2018-03-25T09:31:30.427Z,9.36
2018-03-25T09:32:30.412Z,9.34
2018-03-25T09:33:30.380Z,9.4
2018-03-25T09:34:30.606Z,9.51
2018-03-25T09:35:30.333Z,9.5
2018-03-25T09:36:30.653Z,9.48
2018-03-25T09:37:30.531Z,9.51
2018-03-25T09:38:30.265Z,9.58
2018-03-25T09:39:30.488Z,9.58
2018-03-25T09:40:30.460Z,9.66
2018-03-25T09:41:30.435Z,9.66
2018-03-25T09:42:30.163Z,9.68
2018-03-25T09:43:30.389Z,9.62
2018-03-25T09:44:30.115Z,9.77
2018-03-25T09:45:30.092Z,9.74
2018-03-25T09:46:30.356Z,9.89
2018-03-25T09:47:30.301Z,9.97
2018-03-25T09:48:30.023Z,9.91
2018-03-25T09:49:30.245Z,10.02
2018-03-25T09:50:29.968Z,10.04
2018-03-25T09:51:30.190Z,9.99
2018-03-25T09:52:30.173Z,10.15
2018-03-25T09:53:30.154Z,10.09
2018-03-25T09:54:30.136Z,10.12
2018-03-25T09:55:30.140Z,10.12
2018-03-25T09:56:30.082Z,10.12
2018-03-25T09:57:29.828Z,10.16
2018-03-25T09:58:29.829Z,10.19
2018-03-25T09:59:29.507Z,10.19
2018-03-25T10:00:29.486Z,10.28
2018-03-25T10:01:29.958Z,10.26
2018-03-25T10:02:29.942Z,10.26
2018-03-25T10:03:29.908Z,10.37
2018-03-25T10:04:29.920Z,10.35
2018-03-25T10:05:29.874Z,10.41
2018-03-25T10:06:29.841Z,10.46
2018-03-25T10:07:29.813Z,10.57
2018-03-25T10:08:29.541Z,10.57
2018-03-25T10:09:29.776Z,10.59
2018-03-25T10:10:29.510Z,10.54
2018-03-25T10:11:29.857Z,10.53
2018-03-25T10:12:29.698Z,10.51
2018-03-25T10:13:29.676Z,10.59
2018-03-25T10:14:29.401Z,10.56
2018-03-25T10:15:29.380Z,10.69
2018-03-25T10:16:29.602Z,10.72
2018-03-25T10:17:29.589Z,10.74
2018-03-25T10:18:29.555Z,10.78
2018-03-25T10:19:29.284Z,10.79
2018-03-25T10:20:29.518Z,10.81
2018-03-25T10:21:28.993Z,10.87
2018-03-25T10:22:29.474Z,10.97
2018-03-25T10:23:29.459Z,10.92
2018-03-25T10:24:29.179Z,11.08
2018-03-25T10:25:29.402Z,11.11
2018-03-25T10:26:29.371Z,11.1
2018-03-25T10:27:29.346Z,11.04
2018-03-25T10:28:29.407Z,11.07
2018-03-25T10:29:29.109Z,11.12
2018-03-25T10:30:29.363Z,11.08
2018-03-25T10:31:29.269Z,11.14
2018-03-25T10:32:28.989Z,11.15
2018-03-25T10:33:29.218Z,11.15
2018-03-25T10:34:28.941Z,11.12
2018-03-25T10:35:29.185Z,11.17
2018-03-25T10:36:29.152Z,11.25
2018-03-25T10:37:29.129Z,11.26
2018-03-25T10:38:29.099Z,11.29
2018-03-25T10:39:28.826Z,11.36
2018-03-25T10:40:29.051Z,11.41
2018-03-25T10:41:29.036Z,11.35
2018-03-25T10:42:28.762Z,11.32
2018-03-25T10:43:28.781Z,11.44
2018-03-25T10:44:28.710Z,11.43
2018-03-25T10:45:28.690Z,11.48
2018-03-25T10:46:28.920Z,11.62
2018-03-25T10:47:28.644Z,11.51
2018-03-25T10:48:28.894Z,11.6
2018-03-25T10:49:28.910Z,11.65
2018-03-25T10:50:28.826Z,11.68
2018-03-25T10:51:28.803Z,11.63
2018-03-25T10:52:28.783Z,11.54
2018-03-25T10:53:28.760Z,11.62
2018-03-25T10:54:28.740Z,11.6
2018-03-25T10:55:28.711Z,11.7
2018-03-25T10:56:28.694Z,11.68
2018-03-25T10:57:28.807Z,11.75
2018-03-25T10:58:28.648Z,11.66
2018-03-25T10:59:28.425Z,11.77
2018-03-25T11:00:28.606Z,11.77
2018-03-25T11:01:28.588Z,11.75
2018-03-25T11:02:28.559Z,11.8
2018-03-25T11:03:28.537Z,11.86
2018-03-25T11:04:28.512Z,11.83
2018-03-25T11:05:28.507Z,11.86
2018-03-25T11:06:28.225Z,12.02
2018-03-25T11:07:28.206Z,12.04
2018-03-25T11:08:28.183Z,12.12
2018-03-25T11:09:28.404Z,12.04
2018-03-25T11:10:28.396Z,12.1
2018-03-25T11:11:28.374Z,12.06
2018-03-25T11:12:28.342Z,12.02
2018-03-25T11:13:28.073Z,12.03
2018-03-25T11:14:28.050Z,12.04
2018-03-25T11:15:28.283Z,12.03
2018-03-25T11:16:28.002Z,12
2018-03-25T11:17:28.000Z,11.9
2018-03-25T11:18:28.222Z,11.87
2018-03-25T11:19:27.945Z,11.87
2018-03-25T11:20:28.167Z,11.95
2018-03-25T11:21:28.149Z,11.88
2018-03-25T11:22:28.132Z,11.86
2018-03-25T11:23:27.861Z,11.94
2018-03-25T11:24:27.851Z,12.03
2018-03-25T11:25:28.066Z,12.04
2018-03-25T11:26:28.045Z,12.03
2018-03-25T11:27:28.024Z,12
2018-03-25T11:28:28.007Z,12
2018-03-25T11:29:27.749Z,11.97
2018-03-25T11:30:27.963Z,11.94
2018-03-25T11:31:27.945Z,11.86
2018-03-25T11:32:27.914Z,11.95
2018-03-25T11:33:27.656Z,12.03
2018-03-25T11:34:27.633Z,11.97
2018-03-25T11:35:27.857Z,12.03
2018-03-25T11:36:27.838Z,12.1
2018-03-25T11:37:27.818Z,12.09
2018-03-25T11:38:27.789Z,12.22
2018-03-25T11:39:27.281Z,12.25
2018-03-25T11:40:27.257Z,12.37
2018-03-25T11:41:27.777Z,12.6
2018-03-25T11:42:27.216Z,12.46
2018-03-25T11:43:27.694Z,12.61
2018-03-25T11:44:27.691Z,12.79
2018-03-25T11:45:27.651Z,12.85
2018-03-25T11:46:27.631Z,12.97
2018-03-25T11:47:27.622Z,13.04
2018-03-25T11:48:27.588Z,13.18
2018-03-25T11:49:27.355Z,13.22
2018-03-25T11:50:27.556Z,13.22
2018-03-25T11:51:27.529Z,13.23
2018-03-25T11:52:27.271Z,13.22
2018-03-25T11:53:27.486Z,13.27
2018-03-25T11:54:26.970Z,13.35
2018-03-25T11:55:27.204Z,13.19
2018-03-25T11:56:27.455Z,13.22
2018-03-25T11:57:27.410Z,13.2
2018-03-25T11:58:27.144Z,13.18
2018-03-25T11:59:27.228Z,13.18
2018-03-25T12:00:27.351Z,13.15
2018-03-25T12:01:27.802Z,13.01
2018-03-25T12:02:27.312Z,13.01
2018-03-25T12:03:27.293Z,13.05
2018-03-25T12:04:27.018Z,13.04
2018-03-25T12:05:27.246Z,12.98
2018-03-25T12:06:27.245Z,13.09
2018-03-25T12:07:26.966Z,13.05
2018-03-25T12:08:26.940Z,13.03
2018-03-25T12:09:26.920Z,13.04
2018-03-25T12:10:27.183Z,13.12
2018-03-25T12:11:27.142Z,13.25
2018-03-25T12:12:27.109Z,13.28
2018-03-25T12:13:27.095Z,13.3
2018-03-25T12:14:26.824Z,13.39
2018-03-25T12:15:27.051Z,13.38
2018-03-25T12:16:27.110Z,13.5
2018-03-25T12:17:27.013Z,13.56
2018-03-25T12:18:26.751Z,13.6
2018-03-25T12:19:26.723Z,13.65
2018-03-25T12:20:27.020Z,13.59
2018-03-25T12:21:26.936Z,13.63
2018-03-25T12:22:26.910Z,13.65
2018-03-25T12:23:26.644Z,13.56
2018-03-25T12:24:26.626Z,13.57
2018-03-25T12:25:26.861Z,13.7
2018-03-25T12:26:26.832Z,13.71
2018-03-25T12:27:26.817Z,13.6
2018-03-25T12:28:26.833Z,13.6
2018-03-25T12:29:26.784Z,13.53
2018-03-25T12:30:26.756Z,13.53
2018-03-25T12:31:26.739Z,13.47
2018-03-25T12:32:26.726Z,13.59
2018-03-25T12:33:26.703Z,13.59
2018-03-25T12:34:26.429Z,13.75
2018-03-25T12:35:26.656Z,13.86
2018-03-25T12:36:26.642Z,13.89
2018-03-25T12:37:26.626Z,13.81
2018-03-25T12:38:26.599Z,13.74
2018-03-25T12:39:26.587Z,13.72
2018-03-25T12:40:26.568Z,13.59
2018-03-25T12:41:26.546Z,13.59
2018-03-25T12:42:26.278Z,13.6
2018-03-25T12:43:26.509Z,13.59
2018-03-25T12:44:26.486Z,13.57
2018-03-25T12:45:26.466Z,13.7
2018-03-25T12:46:26.456Z,13.74
2018-03-25T12:47:26.432Z,13.75
2018-03-25T12:48:26.409Z,13.87
2018-03-25T12:49:26.398Z,13.86
2018-03-25T12:50:26.366Z,13.93
2018-03-25T12:51:26.351Z,14.05
2018-03-25T12:52:26.337Z,14.15
2018-03-25T12:53:26.314Z,14.37
2018-03-25T12:54:26.055Z,14.59
2018-03-25T12:55:26.278Z,14.81
2018-03-25T12:56:25.766Z,14.92
2018-03-25T12:57:26.240Z,15.03
2018-03-25T12:58:26.222Z,15.19
2018-03-25T12:59:26.205Z,15.15
2018-03-25T13:00:26.189Z,15.27
2018-03-25T13:01:26.171Z,15.31
2018-03-25T13:02:26.155Z,15.42
2018-03-25T13:03:26.140Z,15.36
2018-03-25T13:04:26.121Z,15.33
2018-03-25T13:05:26.105Z,15.19
2018-03-25T13:06:26.090Z,15.07
2018-03-25T13:07:25.821Z,14.97
2018-03-25T13:08:25.809Z,14.91
2018-03-25T13:09:26.036Z,14.92
2018-03-25T13:10:26.017Z,14.91
2018-03-25T13:11:25.762Z,14.91
2018-03-25T13:12:25.983Z,14.91
2018-03-25T13:13:25.720Z,14.84
2018-03-25T13:14:26.076Z,14.94
2018-03-25T13:15:25.688Z,14.89